Flight Track Log - Related Links

Times and Time Zones

All times are in EDT time to prevent confusion due to time zone crossing. See the N915MR flight status page for this flight to view local times or setup timezone preferences in your user account.

Time Position Orientation Groundspeed Altitude Reporting Facility
EDT Latitude Longitude Course Direction KTS MPH feet Rate Location/Type
Tue 04:56:06 PM 33.5661 -86.7511 74° East 127 146 1,200  Level Atlanta Center
Tue 04:57:07 PM 33.5753 -86.7117 74° East 145 167 2,500 1,364 Climbing Atlanta Center
Tue 04:57:56 PM 33.5422 -86.6981 161° South 159 183 3,700 1,408 Climbing Atlanta Center
Tue 04:58:45 PM 33.5069 -86.6944 175° South 158 182 4,800 1,486 Climbing Atlanta Center
Tue 04:59:45 PM 33.4672 -86.6933 179° South 153 176 6,400 1,550 Climbing Atlanta Center
Tue 05:00:45 PM 33.4256 -86.6944 181° South 158 182 7,900 1,350 Climbing Atlanta Center
Tue 05:01:45 PM 33.3814 -86.7081 194° South 158 182 9,100 1,200 Climbing Atlanta Center
Tue 05:02:45 PM 33.3350 -86.7292 201° Southwest 171 197 10,300 1,100 Climbing Atlanta Center
Tue 05:03:45 PM 33.2931 -86.7403 192° South 171 197 11,300 1,150 Climbing Atlanta Center
Tue 05:04:45 PM 33.2447 -86.7486 188° South 171 197 12,600 1,200 Climbing Atlanta Center
Tue 05:05:45 PM 33.1964 -86.7644 195° South 176 203 13,700 1,100 Climbing Atlanta Center
Tue 05:06:45 PM 33.1458 -86.7803 195° South 181 208 14,800 1,100 Climbing Atlanta Center
Tue 05:07:45 PM 33.0975 -86.7986 198° South 186 214 15,900 1,050 Climbing Atlanta Center
Tue 05:08:45 PM 33.0492 -86.8144 195° South 186 214 16,900 1,000 Climbing Atlanta Center
Tue 05:09:45 PM 32.9986 -86.8325 197° South 186 214 17,900 550 Climbing Atlanta Center
Tue 05:10:45 PM 32.9461 -86.8533 198° South 192 221 18,000 50 Climbing Atlanta Center
Tue 05:11:45 PM 32.8850 -86.8711 194° South 204 235 18,000  Level Atlanta Center
Tue 05:12:45 PM 32.8133 -86.8983 198° South 240 276 18,000  Level Atlanta Center
Tue 05:13:45 PM 32.7525 -86.9186 196° South 246 283 18,000  Level Atlanta Center
Tue 05:14:45 PM 32.6872 -86.9411 196° South 246 283 18,000  Level Atlanta Center
Tue 05:15:45 PM 32.6242 -86.9614 195° South 241 277 18,000  Level Atlanta Center
Tue 05:16:45 PM 32.5611 -86.9839 197° South 246 283 18,000  Level Atlanta Center
Tue 05:17:45 PM 32.4978 -87.0064 197° South 246 283 18,000  Level Atlanta Center
Tue 05:18:45 PM 32.4306 -87.0289 196° South 246 283 18,000  Level Atlanta Center
Tue 05:19:45 PM 32.3675 -87.0489 195° South 246 283 18,000  Level Atlanta Center
Tue 05:20:45 PM 32.3031 -87.0344 169° South 226 260 18,000  Level Atlanta Center
Tue 05:21:45 PM 32.2411 -87.0053 158° South 231 266 18,000  Level Atlanta Center
Tue 05:22:45 PM 32.1814 -86.9761 158° South 237 273 18,000  Level Atlanta Center
Tue 05:23:45 PM 32.1172 -86.9447 157° South 243 280 18,000  Level Atlanta Center
Tue 05:24:45 PM 32.0556 -86.9158 158° South 243 280 18,000  Level Atlanta Center
Tue 05:25:45 PM 31.9914 -86.8867 159° South 251 289 18,000  Level Atlanta Center
Tue 05:26:45 PM 31.9294 -86.8578 158° South 246 283 18,000  Level Atlanta Center
Tue 05:28:42 PM 31.8078 -86.8014 159° South 239 275 18,000  Level Jacksonville Center
Tue 05:29:42 PM 31.7461 -86.7719 158° South 239 275 18,000  Level Jacksonville Center
Tue 05:30:42 PM 31.6864 -86.7403 156° South 239 275 18,000  Level Jacksonville Center
Tue 05:31:42 PM 31.6203 -86.7178 164° South 239 275 18,000  Level Jacksonville Center
Tue 05:32:42 PM 31.5628 -86.7544 209° Southwest 224 258 18,000  Level Jacksonville Center
Tue 05:33:42 PM 31.5053 -86.7961 212° Southwest 229 264 18,000  Level Jacksonville Center
Tue 05:34:42 PM 31.4497 -86.8325 209° Southwest 240 276 18,000  Level Jacksonville Center
Tue 05:35:42 PM 31.3922 -86.8739 212° Southwest 245 282 18,000  Level Jacksonville Center
Tue 05:36:33 PM 31.3431 -86.9036 207° Southwest 236 272 18,000  Level Jacksonville Center
Tue 05:36:42 PM 31.3347 -86.9106 215° Southwest 245 282 18,000  Level Jacksonville Center
Tue 05:36:57 PM 31.3197 -86.9219 213° Southwest 236 272 18,000  Level Jacksonville Center
Tue 05:37:42 PM 31.2769 -86.9542 213° Southwest 245 282 18,000  Level Jacksonville Center
Tue 05:37:58 PM 31.2681 -86.9658 228° Southwest 241 277 18,000 -338 Level Jacksonville Center
Tue 05:38:53 PM 31.2047 -86.9900 198° South 246 283 17,600 -635 Descending Jacksonville Center
Tue 05:39:42 PM 31.1558 -87.0144 203° Southwest 240 276 16,900 -885 Descending Jacksonville Center
Tue 05:39:54 PM 31.1431 -87.0236 212° Southwest 260 299 16,700 -900 Descending Jacksonville Center
Tue 05:40:42 PM 31.0922 -87.0456 200° South 240 276 16,000 -984 Descending Jacksonville Center
Tue 05:40:55 PM 31.0794 -87.0547 212° Southwest 240 276 15,700 -1,000 Descending Jacksonville Center
Tue 05:41:42 PM 31.0328 -87.0794 204° Southwest 246 283 15,000 -909 Descending Jacksonville Center
Tue 05:42:01 PM 31.0092 -87.1000 217° Southwest 255 293 14,700 -900 Descending Jacksonville Center
Tue 05:42:42 PM 30.9728 -87.1228 208° Southwest 246 283 14,100 -984 Descending Jacksonville Center
Tue 05:43:02 PM 30.9514 -87.1436 220° Southwest 238 274 13,700 -1,100 Descending Jacksonville Center
Tue 05:43:42 PM 30.9172 -87.1661 209° Southwest 251 289 13,000 -1,082 Descending Jacksonville Center
Tue 05:44:03 PM 30.9019 -87.1850 227° Southwest 234 269 12,600 -1,100 Descending Jacksonville Center
Tue 05:44:42 PM 30.8656 -87.2100 211° Southwest 251 289 11,900 -1,082 Descending Jacksonville Center
Tue 05:45:04 PM 30.8439 -87.2306 219° Southwest 234 269 11,500 -1,000 Descending Jacksonville Center
Tue 05:45:42 PM 30.8158 -87.2561 218° Southwest 238 274 10,900 -1,111 Descending Jacksonville Center
Tue 05:45:58 PM 30.8028 -87.2722 227° Southwest 230 265 10,500 -1,200 Descending Jacksonville Center
Tue 05:46:42 PM 30.7683 -87.3044 219° Southwest 233 268 9,700 -1,180 Descending Jacksonville Center
Tue 05:46:59 PM 30.7511 -87.3231 223° Southwest 232 267 9,300 -1,231 Descending Jacksonville Center
Tue 05:48:00 PM 30.6994 -87.3689 217° Southwest 225 259 8,100 -1,180 Descending Jacksonville Center
Tue 05:49:01 PM 30.6478 -87.4100 214° Southwest 225 259 6,900 -1,240 Descending Jacksonville Center
Tue 05:50:01 PM 30.5961 -87.4533 216° Southwest 220 253 5,600 -1,240 Descending Jacksonville Center
Tue 05:51:02 PM 30.5486 -87.4944 217° Southwest 225 259 4,400 -1,180 Descending Jacksonville Center
Tue 05:53:00 PM 30.4343 -87.5368 213° Southwest  Level FlightAware Approximate
Tue 06:00:00 PM 30.2833 -87.6667 213° Southwest  Level FlightAware Approximate
Tue 06:01:00 PM 30.2896 -87.6718 213° Southwest  Level Estimated
Tue 06:02:00 PM 30.2896 -87.6718 213° Southwest  Level Estimated

Login

Don't have an account? Register now (free) for customized features, flight alerts, and more!